createdAt,value
2022-09-16T00:00:51.798Z,11.21
2022-09-16T00:03:19.125Z,11.24
2022-09-16T00:05:48.754Z,11.23
2022-09-16T00:08:16.811Z,11.23
2022-09-16T00:10:44.171Z,11.20
2022-09-16T00:13:14.825Z,11.19
2022-09-16T00:15:43.908Z,11.15
2022-09-16T00:18:12.050Z,11.17
2022-09-16T00:20:44.294Z,11.11
2022-09-16T00:23:10.854Z,11.09
2022-09-16T00:25:37.424Z,11.08
2022-09-16T00:28:04.313Z,11.08
2022-09-16T00:30:31.070Z,11.04
2022-09-16T00:32:57.666Z,11.02
2022-09-16T00:35:24.242Z,11.01
2022-09-16T00:37:50.845Z,11.00
2022-09-16T00:40:17.557Z,10.99
2022-09-16T00:42:44.276Z,10.96
2022-09-16T00:45:17.099Z,10.89
2022-09-16T00:47:49.522Z,10.90
2022-09-16T00:50:25.937Z,10.93
2022-09-16T00:52:53.957Z,10.93
2022-09-16T00:55:26.145Z,10.92
2022-09-16T00:57:55.182Z,10.94
2022-09-16T01:00:21.875Z,10.94
2022-09-16T01:02:50.003Z,10.96
2022-09-16T01:05:22.226Z,10.90
2022-09-16T01:07:51.298Z,10.88
2022-09-16T01:10:23.134Z,10.92
2022-09-16T01:13:06.327Z,10.93
2022-09-16T01:15:52.659Z,10.96
2022-09-16T01:18:22.179Z,11.01
2022-09-16T01:21:20.811Z,11.01
2022-09-16T01:24:05.147Z,11.01
2022-09-16T01:27:09.578Z,11.03
2022-09-16T01:29:39.138Z,11.02
2022-09-16T01:32:29.246Z,11.02
2022-09-16T01:35:22.321Z,11.00
2022-09-16T01:38:20.145Z,10.99
2022-09-16T01:41:02.924Z,10.97
2022-09-16T01:43:41.920Z,10.94
2022-09-16T01:46:10.597Z,10.94
2022-09-16T01:48:53.719Z,10.90
2022-09-16T01:51:28.336Z,10.93
2022-09-16T01:54:05.693Z,10.93
2022-09-16T01:56:56.977Z,10.88
2022-09-16T01:59:51.417Z,10.87
2022-09-16T02:02:26.194Z,10.89
2022-09-16T02:04:56.351Z,10.87
2022-09-16T02:07:29.182Z,10.88
2022-09-16T02:10:00.959Z,10.83
2022-09-16T02:12:34.556Z,10.83
2022-09-16T02:15:07.499Z,10.82
2022-09-16T02:17:38.913Z,10.85
2022-09-16T02:20:13.077Z,10.86
2022-09-16T02:22:49.530Z,10.83
2022-09-16T02:25:19.278Z,10.82
2022-09-16T02:27:49.152Z,10.86
2022-09-16T02:30:19.301Z,10.88
2022-09-16T02:32:48.874Z,10.86
2022-09-16T02:35:21.441Z,10.85
2022-09-16T02:37:59.101Z,10.89
2022-09-16T02:40:32.663Z,10.92
2022-09-16T02:43:00.751Z,10.94
2022-09-16T02:45:55.485Z,10.96
2022-09-16T02:48:41.273Z,10.96
2022-09-16T02:51:30.483Z,10.99
2022-09-16T02:54:09.989Z,11.01
2022-09-16T02:56:40.464Z,11.00
2022-09-16T02:59:10.216Z,10.99
2022-09-16T03:01:41.392Z,11.01
2022-09-16T03:04:09.735Z,11.01
2022-09-16T03:06:36.410Z,11.01
2022-09-16T03:09:08.249Z,11.03
2022-09-16T03:12:02.648Z,11.09
2022-09-16T03:14:49.490Z,11.10
2022-09-16T03:17:22.592Z,11.12
2022-09-16T03:20:25.649Z,11.15
2022-09-16T03:23:37.766Z,11.16
2022-09-16T03:26:14.922Z,11.14
2022-09-16T03:29:05.904Z,11.13
2022-09-16T03:31:43.801Z,11.17
2022-09-16T03:34:46.564Z,11.16
2022-09-16T03:37:16.753Z,11.16
2022-09-16T03:39:49.647Z,11.18
2022-09-16T03:42:17.399Z,11.20
2022-09-16T03:44:49.628Z,11.22
2022-09-16T03:47:17.422Z,11.18
2022-09-16T03:49:43.936Z,11.16
2022-09-16T03:52:10.570Z,11.16
2022-09-16T03:54:40.545Z,11.21
2022-09-16T03:57:09.447Z,11.26
2022-09-16T03:59:35.974Z,11.22
2022-09-16T04:02:03.846Z,11.25
2022-09-16T04:04:30.407Z,11.23
2022-09-16T04:06:57.428Z,11.20
2022-09-16T04:09:24.103Z,11.22
2022-09-16T04:11:50.735Z,11.22
2022-09-16T04:14:17.451Z,11.23
2022-09-16T04:16:45.355Z,11.29
2022-09-16T04:19:13.658Z,11.24
2022-09-16T04:21:42.867Z,11.22
2022-09-16T04:24:13.167Z,11.24
2022-09-16T04:26:41.074Z,11.28
2022-09-16T04:29:07.972Z,11.25
2022-09-16T04:31:34.885Z,11.27
2022-09-16T04:34:02.805Z,11.28
2022-09-16T04:36:29.520Z,11.30
2022-09-16T04:38:56.139Z,11.25
2022-09-16T04:41:25.334Z,11.24
2022-09-16T04:44:01.292Z,11.28
2022-09-16T04:46:30.111Z,11.26
2022-09-16T04:48:57.091Z,11.21
2022-09-16T04:51:28.695Z,11.26
2022-09-16T04:53:56.711Z,11.28
2022-09-16T04:56:31.426Z,11.22
2022-09-16T04:59:03.867Z,11.23
2022-09-16T05:01:33.371Z,11.23
2022-09-16T05:04:09.701Z,11.19
2022-09-16T05:06:40.530Z,11.21
2022-09-16T05:09:07.844Z,11.23
2022-09-16T05:11:37.866Z,11.22
2022-09-16T05:14:12.983Z,11.27
2022-09-16T05:16:39.658Z,11.26
2022-09-16T05:19:06.286Z,11.21
2022-09-16T05:21:36.235Z,11.16
2022-09-16T05:24:06.120Z,11.15
2022-09-16T05:26:35.152Z,11.10
2022-09-16T05:29:04.246Z,11.08
2022-09-16T05:31:33.789Z,11.02
2022-09-16T05:34:18.621Z,11.00
2022-09-16T05:36:47.584Z,10.97
2022-09-16T05:39:23.344Z,10.97
2022-09-16T05:41:57.474Z,10.93
2022-09-16T05:44:26.326Z,10.97
2022-09-16T05:46:53.740Z,11.01
2022-09-16T05:49:21.022Z,11.01
2022-09-16T05:51:48.599Z,11.03
2022-09-16T05:54:18.240Z,11.03
2022-09-16T05:56:45.482Z,11.06
2022-09-16T05:59:13.705Z,11.06
2022-09-16T06:01:40.613Z,11.04
2022-09-16T06:04:10.712Z,11.08
2022-09-16T06:06:44.058Z,11.10
2022-09-16T06:09:16.621Z,11.13
2022-09-16T06:11:45.897Z,11.20
2022-09-16T06:14:13.609Z,11.28
2022-09-16T06:16:40.582Z,11.31
2022-09-16T06:19:10.945Z,11.34
2022-09-16T06:21:38.212Z,11.36
2022-09-16T06:24:08.834Z,11.47
2022-09-16T06:26:37.737Z,11.43
2022-09-16T06:29:06.132Z,11.45
2022-09-16T06:31:33.697Z,11.47
2022-09-16T06:34:00.401Z,11.42
2022-09-16T06:36:29.708Z,11.36
2022-09-16T06:38:56.594Z,11.36
2022-09-16T06:41:24.559Z,11.46
2022-09-16T06:43:51.901Z,11.47
2022-09-16T06:46:21.297Z,11.50
2022-09-16T06:48:52.804Z,11.51
2022-09-16T06:51:24.798Z,11.51
2022-09-16T06:53:52.466Z,11.54
2022-09-16T06:56:20.910Z,11.55
2022-09-16T06:58:51.813Z,11.61
2022-09-16T07:01:24.640Z,11.63
2022-09-16T07:03:58.358Z,11.69
2022-09-16T07:06:45.164Z,11.77
2022-09-16T07:09:14.479Z,11.81
2022-09-16T07:11:41.029Z,11.81
2022-09-16T07:14:09.295Z,11.82
2022-09-16T07:16:35.932Z,11.92
2022-09-16T07:19:02.652Z,11.94
2022-09-16T07:21:30.324Z,11.96
2022-09-16T07:24:02.446Z,12.05
2022-09-16T07:26:31.939Z,12.07
2022-09-16T07:29:05.566Z,12.10
2022-09-16T07:31:36.917Z,12.18
2022-09-16T07:34:05.857Z,12.25
2022-09-16T07:36:35.580Z,12.31
2022-09-16T07:39:03.046Z,12.35
2022-09-16T07:41:33.690Z,12.42
2022-09-16T07:44:00.842Z,12.52
2022-09-16T07:46:33.492Z,12.53
2022-09-16T07:49:01.978Z,12.58
2022-09-16T07:51:33.117Z,12.64
2022-09-16T07:54:04.198Z,12.66
2022-09-16T07:56:36.674Z,12.75
2022-09-16T07:59:06.191Z,12.85
2022-09-16T08:01:34.039Z,12.96
2022-09-16T08:04:01.862Z,13.11
2022-09-16T08:06:33.230Z,13.29
2022-09-16T08:09:27.224Z,13.36
2022-09-16T08:11:50.307Z,13.49
2022-09-16T08:14:16.850Z,13.65
2022-09-16T08:16:43.532Z,13.66
2022-09-16T08:19:11.693Z,13.68
2022-09-16T08:21:38.273Z,13.69
2022-09-16T08:24:10.164Z,13.69
2022-09-16T08:26:36.878Z,13.66
2022-09-16T08:29:08.873Z,13.60
2022-09-16T08:31:38.186Z,13.61
2022-09-16T08:34:06.505Z,13.71
2022-09-16T08:36:33.753Z,13.86
2022-09-16T08:39:02.029Z,13.96
2022-09-16T08:42:10.514Z,14.17
2022-09-16T08:44:57.568Z,14.35
2022-09-16T08:47:50.507Z,14.35
2022-09-16T08:50:26.699Z,14.49
2022-09-16T08:52:56.841Z,14.52
2022-09-16T08:55:39.384Z,14.61
2022-09-16T08:58:15.758Z,14.53
2022-09-16T09:00:44.237Z,14.71
2022-09-16T09:03:25.494Z,14.76
2022-09-16T09:06:00.352Z,14.80
2022-09-16T09:08:36.313Z,14.97
2022-09-16T09:11:20.076Z,15.13
2022-09-16T09:13:57.109Z,15.09
2022-09-16T09:16:54.292Z,15.20
2022-09-16T09:19:39.178Z,15.31
2022-09-16T09:22:54.563Z,15.57
2022-09-16T09:25:42.622Z,15.57
2022-09-16T09:28:21.257Z,15.44
2022-09-16T09:31:08.743Z,15.58
2022-09-16T09:33:54.869Z,15.06
2022-09-16T09:36:27.565Z,15.12
2022-09-16T09:39:07.859Z,15.12
2022-09-16T09:41:40.093Z,15.13
2022-09-16T09:44:15.728Z,14.89
2022-09-16T09:46:48.133Z,14.99
2022-09-16T09:49:21.616Z,15.05
2022-09-16T09:51:58.401Z,14.97
2022-09-16T09:54:31.297Z,14.89
2022-09-16T09:57:17.185Z,15.06
2022-09-16T09:59:51.023Z,15.15
2022-09-16T10:02:22.959Z,15.21
2022-09-16T10:04:50.502Z,15.19
2022-09-16T10:07:23.273Z,15.16
2022-09-16T10:09:54.932Z,15.28
2022-09-16T10:12:30.562Z,15.26
2022-09-16T10:14:57.304Z,15.21
2022-09-16T10:17:25.526Z,15.27
2022-09-16T10:19:58.131Z,15.53
2022-09-16T10:22:30.222Z,15.73
2022-09-16T10:24:58.425Z,15.98
2022-09-16T10:27:35.748Z,15.98
2022-09-16T10:30:05.454Z,15.85
2022-09-16T10:32:39.921Z,16.07
2022-09-16T10:35:08.263Z,16.26
2022-09-16T10:37:34.847Z,16.33
2022-09-16T10:40:03.702Z,16.00
2022-09-16T10:42:30.826Z,15.85
2022-09-16T10:45:13.392Z,15.78
2022-09-16T10:47:41.069Z,15.96
2022-09-16T10:50:08.315Z,15.97
2022-09-16T10:52:43.990Z,16.17
2022-09-16T10:55:20.022Z,16.25
2022-09-16T10:57:47.448Z,16.37
2022-09-16T11:00:15.978Z,16.42
2022-09-16T11:03:03.913Z,16.39
2022-09-16T11:05:46.068Z,16.35
2022-09-16T11:08:52.387Z,15.98
2022-09-16T11:11:37.919Z,15.92
2022-09-16T11:14:39.361Z,16.02
2022-09-16T11:17:18.720Z,16.01
2022-09-16T11:20:05.981Z,15.95
2022-09-16T11:22:51.371Z,15.95
2022-09-16T11:25:44.733Z,16.09
2022-09-16T11:28:42.528Z,16.26
2022-09-16T11:31:13.128Z,16.27
2022-09-16T11:33:53.273Z,16.28
2022-09-16T11:36:40.925Z,16.15
2022-09-16T11:39:32.808Z,16.15
2022-09-16T11:42:26.100Z,16.31
2022-09-16T11:45:29.882Z,16.42
2022-09-16T11:48:22.248Z,16.52
2022-09-16T11:51:12.918Z,16.61
2022-09-16T11:54:04.402Z,16.76
2022-09-16T11:56:47.897Z,16.71
2022-09-16T11:59:30.141Z,16.69
2022-09-16T12:02:03.954Z,16.68
2022-09-16T12:04:38.375Z,16.82
2022-09-16T12:07:25.659Z,16.98
2022-09-16T12:09:59.982Z,17.03
2022-09-16T12:12:32.469Z,17.00
2022-09-16T12:15:14.255Z,17.10
2022-09-16T12:17:46.234Z,17.14
2022-09-16T12:20:21.291Z,17.28
2022-09-16T12:23:16.576Z,16.95
2022-09-16T12:26:10.280Z,16.49
2022-09-16T12:28:50.592Z,16.04
2022-09-16T12:31:24.249Z,15.34
2022-09-16T12:34:00.322Z,14.97
2022-09-16T12:36:32.544Z,14.75
2022-09-16T12:39:00.301Z,14.44
2022-09-16T12:41:57.925Z,14.25
2022-09-16T12:44:43.759Z,14.01
2022-09-16T12:47:22.671Z,14.16
2022-09-16T12:50:26.576Z,14.25
2022-09-16T12:52:56.263Z,14.42
2022-09-16T12:55:38.167Z,14.47
2022-09-16T12:58:23.292Z,14.58
2022-09-16T13:01:13.338Z,14.65
2022-09-16T13:03:45.007Z,14.79
2022-09-16T13:06:22.716Z,15.06
2022-09-16T13:08:51.819Z,15.29
2022-09-16T13:14:24.206Z,15.82
2022-09-16T13:16:57.277Z,15.80
2022-09-16T13:19:38.872Z,15.56
2022-09-16T13:22:32.838Z,15.54
2022-09-16T13:25:29.617Z,15.36
2022-09-16T13:28:01.742Z,15.42
2022-09-16T13:30:36.492Z,15.43
2022-09-16T13:33:25.188Z,15.59
2022-09-16T13:36:13.402Z,15.74
2022-09-16T13:38:43.271Z,15.90
2022-09-16T13:41:14.447Z,16.04
2022-09-16T13:43:47.055Z,16.14
2022-09-16T13:46:27.241Z,16.13
2022-09-16T13:49:05.529Z,16.16
2022-09-16T13:51:46.167Z,16.26
2022-09-16T13:54:20.066Z,16.44
2022-09-16T13:57:12.585Z,16.52
2022-09-16T13:59:49.005Z,16.65
2022-09-16T14:02:18.882Z,16.61
2022-09-16T14:05:01.021Z,16.56
2022-09-16T14:07:47.495Z,16.46
2022-09-16T14:10:19.595Z,16.47
2022-09-16T14:13:11.392Z,16.30
2022-09-16T14:15:45.342Z,16.08
2022-09-16T14:18:14.581Z,16.12
2022-09-16T14:20:59.816Z,16.08
2022-09-16T14:23:27.538Z,16.15
2022-09-16T14:25:55.587Z,16.22
2022-09-16T14:28:23.903Z,16.35
2022-09-16T14:30:57.816Z,16.05
2022-09-16T14:33:41.735Z,15.99
2022-09-16T14:36:28.485Z,16.00
2022-09-16T14:39:02.281Z,15.93
2022-09-16T14:41:47.395Z,15.92
2022-09-16T14:44:20.129Z,15.93
2022-09-16T14:46:56.774Z,15.88
2022-09-16T14:49:31.865Z,15.98
2022-09-16T14:52:02.149Z,15.98
2022-09-16T14:54:29.328Z,15.90
2022-09-16T14:57:05.288Z,15.89
2022-09-16T14:59:35.985Z,15.87
2022-09-16T15:02:09.359Z,15.73
2022-09-16T15:04:40.664Z,15.74
2022-09-16T15:07:16.475Z,15.68
2022-09-16T15:09:49.652Z,15.72
2022-09-16T15:12:29.870Z,15.77
2022-09-16T15:14:57.795Z,15.85
2022-09-16T15:17:27.597Z,15.87
2022-09-16T15:19:59.505Z,15.77
2022-09-16T15:22:27.532Z,15.72
2022-09-16T15:24:58.326Z,15.73
2022-09-16T15:27:29.135Z,15.66
2022-09-16T15:29:59.709Z,15.68
2022-09-16T15:32:31.471Z,15.60
2022-09-16T15:35:14.390Z,15.57
2022-09-16T15:37:41.240Z,15.54
2022-09-16T15:40:19.778Z,15.48
2022-09-16T15:42:48.278Z,15.49
2022-09-16T15:45:19.933Z,15.44
2022-09-16T15:47:55.657Z,15.33
2022-09-16T15:50:24.141Z,15.34
2022-09-16T15:53:06.582Z,15.36
2022-09-16T15:55:50.627Z,15.32
2022-09-16T15:58:32.494Z,15.23
2022-09-16T16:01:40.010Z,15.16
2022-09-16T16:04:10.540Z,15.15
2022-09-16T16:06:49.206Z,15.12
2022-09-16T16:09:27.954Z,15.10
2022-09-16T16:11:55.934Z,15.17
2022-09-16T16:14:25.622Z,15.01
2022-09-16T16:17:11.891Z,15.00
2022-09-16T16:19:41.153Z,14.99
2022-09-16T16:22:08.263Z,14.99
2022-09-16T16:24:35.109Z,14.93
2022-09-16T16:27:01.726Z,14.96
2022-09-16T16:29:28.324Z,14.89
2022-09-16T16:31:58.834Z,14.76
2022-09-16T16:34:25.497Z,14.73
2022-09-16T16:36:55.133Z,14.57
2022-09-16T16:39:23.932Z,14.46
2022-09-16T16:41:53.911Z,14.33
2022-09-16T16:44:22.714Z,14.29
2022-09-16T16:46:55.073Z,14.28
2022-09-16T16:49:22.940Z,14.09
2022-09-16T16:51:51.685Z,13.89
2022-09-16T16:54:19.308Z,13.87
2022-09-16T16:56:46.666Z,13.85
2022-09-16T16:59:14.699Z,13.58
2022-09-16T17:01:46.594Z,13.50
2022-09-16T17:04:15.130Z,13.38
2022-09-16T17:06:41.692Z,13.38
2022-09-16T17:09:14.970Z,13.24
2022-09-16T17:11:55.737Z,13.13
2022-09-16T17:14:24.459Z,12.98
2022-09-16T17:16:52.853Z,12.96
2022-09-16T17:19:19.567Z,12.82
2022-09-16T17:21:47.997Z,12.70
2022-09-16T17:24:17.342Z,12.65
2022-09-16T17:26:45.268Z,12.37
2022-09-16T17:29:15.956Z,12.31
2022-09-16T17:31:43.904Z,12.13
2022-09-16T17:34:13.400Z,12.03
2022-09-16T17:36:45.537Z,12.02
2022-09-16T17:39:17.826Z,12.05
2022-09-16T17:41:46.477Z,12.02
2022-09-16T17:44:13.813Z,11.91
2022-09-16T17:46:42.447Z,11.89
2022-09-16T17:49:21.523Z,11.92
2022-09-16T17:51:49.606Z,11.95
2022-09-16T17:54:17.294Z,11.81
2022-09-16T17:56:44.843Z,11.85
2022-09-16T17:59:13.364Z,11.85
2022-09-16T18:01:40.009Z,11.77
2022-09-16T18:04:08.118Z,11.79
2022-09-16T18:06:41.037Z,11.71
2022-09-16T18:09:09.177Z,11.70
2022-09-16T18:11:39.648Z,11.64
2022-09-16T18:14:08.221Z,11.58
2022-09-16T18:16:35.538Z,11.62
2022-09-16T18:19:03.952Z,11.62
2022-09-16T18:21:31.486Z,11.67
2022-09-16T18:24:00.703Z,11.61
2022-09-16T18:26:28.115Z,11.62
2022-09-16T18:29:12.584Z,11.62
2022-09-16T18:31:42.593Z,11.57
2022-09-16T18:34:09.923Z,11.60
2022-09-16T18:36:37.721Z,11.60
2022-09-16T18:39:06.007Z,11.62
2022-09-16T18:41:38.036Z,11.65
2022-09-16T18:44:07.860Z,11.60
2022-09-16T18:46:38.272Z,11.51
2022-09-16T18:49:06.219Z,11.56
2022-09-16T18:51:35.712Z,11.50
2022-09-16T18:54:07.996Z,11.47
2022-09-16T18:56:37.017Z,11.48
2022-09-16T18:59:22.163Z,11.47
2022-09-16T19:01:51.483Z,11.49
2022-09-16T19:04:21.555Z,11.45
2022-09-16T19:06:51.057Z,11.43
2022-09-16T19:09:19.481Z,11.48
2022-09-16T19:11:46.414Z,11.47
2022-09-16T19:14:14.795Z,11.49
2022-09-16T19:16:43.321Z,11.46
2022-09-16T19:19:13.391Z,11.47
2022-09-16T19:21:40.923Z,11.44
2022-09-16T19:24:13.929Z,11.42
2022-09-16T19:26:42.074Z,11.41
2022-09-16T19:29:09.904Z,11.42
2022-09-16T19:31:39.244Z,11.39
2022-09-16T19:34:06.734Z,11.42
2022-09-16T19:36:34.922Z,11.36
2022-09-16T19:39:02.229Z,11.32
2022-09-16T19:41:30.781Z,11.38
2022-09-16T19:43:59.921Z,11.42
2022-09-16T19:46:27.785Z,11.34
2022-09-16T19:48:55.103Z,11.39
2022-09-16T19:51:23.674Z,11.33
2022-09-16T19:53:52.382Z,11.35
2022-09-16T19:56:22.487Z,11.38
2022-09-16T19:58:50.235Z,11.38
2022-09-16T20:01:19.945Z,11.37
2022-09-16T20:03:49.230Z,11.39
2022-09-16T20:06:21.844Z,11.43
2022-09-16T20:08:53.523Z,11.40
2022-09-16T20:11:25.073Z,11.43
2022-09-16T20:13:58.901Z,11.44
2022-09-16T20:16:30.545Z,11.40
2022-09-16T20:19:00.019Z,11.42
2022-09-16T20:21:27.121Z,11.43
2022-09-16T20:23:54.520Z,11.42
2022-09-16T20:26:21.973Z,11.50
2022-09-16T20:28:50.929Z,11.49
2022-09-16T20:31:23.227Z,11.47
2022-09-16T20:33:50.945Z,11.47
2022-09-16T20:36:20.133Z,11.46
2022-09-16T20:38:47.057Z,11.46
2022-09-16T20:41:15.876Z,11.47
2022-09-16T20:43:43.091Z,11.45
2022-09-16T20:46:23.452Z,11.47
2022-09-16T20:48:54.471Z,11.52
2022-09-16T20:51:23.558Z,11.56
2022-09-16T20:53:59.661Z,11.56
2022-09-16T20:56:32.562Z,11.56
2022-09-16T20:59:05.575Z,11.56
2022-09-16T21:01:32.445Z,11.52
2022-09-16T21:04:01.689Z,11.50
2022-09-16T21:06:29.336Z,11.47
2022-09-16T21:08:59.551Z,11.46
2022-09-16T21:11:29.774Z,11.47
2022-09-16T21:14:00.847Z,11.46
2022-09-16T21:16:29.616Z,11.44
2022-09-16T21:18:58.156Z,11.50
2022-09-16T21:21:28.368Z,11.49
2022-09-16T21:23:57.532Z,11.50
2022-09-16T21:26:32.367Z,11.49
2022-09-16T21:29:01.534Z,11.43
2022-09-16T21:31:33.563Z,11.43
2022-09-16T21:34:02.333Z,11.43
2022-09-16T21:36:30.248Z,11.48
2022-09-16T21:38:59.097Z,11.38
2022-09-16T21:41:26.517Z,11.40
2022-09-16T21:43:55.763Z,11.35
2022-09-16T21:46:26.846Z,11.33
2022-09-16T21:48:58.326Z,11.27
2022-09-16T21:51:26.381Z,11.33
2022-09-16T21:53:53.109Z,11.29
2022-09-16T21:56:22.146Z,11.34
2022-09-16T21:58:52.723Z,11.28
2022-09-16T22:01:22.636Z,11.20
2022-09-16T22:03:57.845Z,11.19
2022-09-16T22:06:27.807Z,11.20
2022-09-16T22:08:56.044Z,11.21
2022-09-16T22:11:25.846Z,11.21
2022-09-16T22:13:53.963Z,11.25
2022-09-16T22:16:27.148Z,11.22
2022-09-16T22:18:55.418Z,11.23
2022-09-16T22:21:25.333Z,11.19
2022-09-16T22:23:52.270Z,11.25
2022-09-16T22:26:20.614Z,11.24
2022-09-16T22:28:51.237Z,11.26
2022-09-16T22:31:23.079Z,11.26
2022-09-16T22:33:51.642Z,11.26
2022-09-16T22:36:22.048Z,11.30
2022-09-16T22:38:50.283Z,11.27
2022-09-16T22:41:17.551Z,11.29
2022-09-16T22:43:46.216Z,11.28
2022-09-16T22:46:25.868Z,11.34
2022-09-16T22:48:57.016Z,11.31
2022-09-16T22:51:24.516Z,11.32
2022-09-16T22:53:51.470Z,11.33
2022-09-16T22:56:20.337Z,11.30
2022-09-16T22:58:50.833Z,11.37
2022-09-16T23:01:19.807Z,11.42
2022-09-16T23:03:47.778Z,11.46
2022-09-16T23:06:15.533Z,11.44
2022-09-16T23:09:04.402Z,11.41
2022-09-16T23:11:33.194Z,11.45
2022-09-16T23:14:01.212Z,11.42
2022-09-16T23:16:33.481Z,11.41
2022-09-16T23:19:02.057Z,11.47
2022-09-16T23:21:29.576Z,11.42
2022-09-16T23:23:59.157Z,11.39
2022-09-16T23:26:28.206Z,11.46
2022-09-16T23:28:59.208Z,11.48
2022-09-16T23:31:28.768Z,11.43
2022-09-16T23:33:56.108Z,11.47
2022-09-16T23:36:24.354Z,11.52
2022-09-16T23:38:51.203Z,11.48
2022-09-16T23:41:21.347Z,11.47
2022-09-16T23:43:49.334Z,11.52
2022-09-16T23:46:19.097Z,11.53
2022-09-16T23:48:46.718Z,11.50
2022-09-16T23:51:14.051Z,11.51
2022-09-16T23:53:42.286Z,11.48
2022-09-16T23:56:12.729Z,11.51
2022-09-16T23:58:40.207Z,11.47
